Terminal Aerodrome Forecast
Issued by NWS

Home | Current Version | Previous Version | Text Only | Print | Product List | Glossary On
Versions: 1 2 3 4 5 6 7 8 9 10 11 12 13 14 15 16
042
FTUS44 KTSA 201450 AAA
TAFMLC
TAF AMD
KMLC 201450Z 2015/2112 19012G18KT P6SM SKC
     FM210000 16007KT P6SM SKC=

USA.gov is the U.S. government's official web portal to all federal, state and local government web resources and services.